Agana Heights, GU

7:56 AM ChST on February 13, 2016 (GMT +1000)
Maite | | Change Station
CLOSE
Current Station
Personal Weather Station
Location: Maite, GU
Elevation: 140 ft
Nearby Weather Stations
Active Advisory: High Surf Advisory

Elev 140 ft 13.48 °N, 144.76 °E | Updated 4 seconds ago

Mostly Cloudy
Mostly Cloudy
78.5 °F
Feels Like 81 °F
N
8.0
Wind Variable Wind from NE
Gusts 16.0 mph

Today
High -- | Low -- °F
--% Chance of Precip.
Yesterday
High -- | Low -- °F
Precip. -- in
Pressure 29.99 in
Visibility 10.0 miles
Clouds Few 4100 ft
Mostly Cloudy 6500 ft
Heat Index 81 °F
Dew Point 71 °F
Humidity 79%
Rainfall 0.00 in
Snow Depth Not available.
6:45 AM 6:25 PM
Waxing Crescent, 24% visible
METAR PGUM 122154Z AUTO 05017KT 10SM FEW041 BKN065 26/21 A3001 RMK AO2 SLP156 T02610206 TSNO $
Pressure 29.99 in
Visibility 10.0 miles
Clouds Few 4100 ft
Mostly Cloudy 6500 ft
Heat Index 81 °F
Dew Point 71 °F
Humidity 79%
Rainfall 0.00 in
Snow Depth Not available.
6:45 AM 6:25 PM
Waxing Crescent, 24% visible
METAR PGUM 122154Z AUTO 05017KT 10SM FEW041 BKN065 26/21 A3001 RMK AO2 SLP156 T02610206 TSNO $

10-Day Weather Forecast

Almanac

Astronomy

Feb. 13, 2016 Rise Set
Actual Time
Civil Twilight
Nautical Twilight
Astronomical Twilight
Moon
Length of Visible Light
Length of Day
Tomorrow will be .
, % of the Moon is Illuminated

Today's Extremes

State Highs State Lows

Community

WunderPhotos

Upload Photos

1,892,408 photos uploaded!

WunderBlog® & News

Nearby

Air Quality

  Air Quality AQ Index Pollutant
Not available.

Snow Depth

Station Depth Elevation

Earthquake Activity

City Distance Mag. Time & Date
Minimum magnitude displayed is 2.5.

Coastal Water Temperatures

Place Temperature

Stations

Nearby Weather Stations

Station Location Temp. Windchill Dew Point Humidity Wind Precip. Elev Updated Type
                   

Watches & Warnings

High Surf Advisory
Issued: 3:12 AM GMT Feb. 13, 2016 – National Weather Service

... High surf advisory remains in effect until 6 PM chst Monday...

* waves and surf... surf along north facing reefs will remain
between 7 and 9 feet.

* Timing... surf will remain at hazardous levels through Monday.

* Impacts... dangerous rip currents and the possibility of minor
erosion along north facing beaches this weekend.

Precautionary/preparedness actions...

A high surf advisory means that high surf will affect beaches in
the advisory area... producing localized beach erosion and
dangerous swimming conditions. Exercise caution near the ocean.



Kleeschulte